createdAt,value
2022-10-30T00:00:49.417Z,3.63
2022-10-30T00:03:17.335Z,4.38
2022-10-30T00:05:47.444Z,4.20
2022-10-30T00:08:17.371Z,4.75
2022-10-30T00:10:45.005Z,4.68
2022-10-30T00:13:13.365Z,4.60
2022-10-30T00:15:46.912Z,3.38
2022-10-30T00:18:14.679Z,3.33
2022-10-30T00:20:41.713Z,3.95
2022-10-30T00:23:08.613Z,3.42
2022-10-30T00:25:36.608Z,3.88
2022-10-30T00:28:07.464Z,3.78
2022-10-30T00:30:35.311Z,4.00
2022-10-30T00:33:02.519Z,3.40
2022-10-30T00:35:30.401Z,3.72
2022-10-30T00:37:57.957Z,3.88
2022-10-30T00:40:25.225Z,3.70
2022-10-30T00:42:52.198Z,3.83
2022-10-30T00:45:19.328Z,4.88
2022-10-30T00:47:51.940Z,4.60
2022-10-30T00:53:01.998Z,4.40
2022-10-30T00:55:43.691Z,4.68
2022-10-30T00:58:16.595Z,6.00
2022-10-30T01:00:50.398Z,5.85
2022-10-30T01:03:19.461Z,4.57
2022-10-30T01:05:52.945Z,4.18
2022-10-30T01:08:20.470Z,4.65
2022-10-30T01:10:48.567Z,4.10
2022-10-30T01:13:17.250Z,4.38
2022-10-30T01:16:19.373Z,4.45
2022-10-30T01:19:36.528Z,4.40
2022-10-30T01:22:21.752Z,5.00
2022-10-30T01:25:19.450Z,3.88
2022-10-30T01:29:01.138Z,4.05
2022-10-30T01:32:08.156Z,4.22
2022-10-30T01:34:58.703Z,4.28
2022-10-30T01:37:40.407Z,4.18
2022-10-30T01:40:15.075Z,4.13
2022-10-30T01:42:53.002Z,3.42
2022-10-30T01:46:26.732Z,4.05
2022-10-30T01:49:17.481Z,3.97
2022-10-30T01:52:17.624Z,3.05
2022-10-30T01:54:53.531Z,3.38
2022-10-30T01:57:52.775Z,3.10
2022-10-30T02:00:20.471Z,3.13
2022-10-30T02:02:52.106Z,3.20
2022-10-30T02:05:37.762Z,4.70
2022-10-30T02:08:05.661Z,4.40
2022-10-30T02:10:37.412Z,3.42
2022-10-30T02:13:05.387Z,3.40
2022-10-30T02:15:33.112Z,3.47
2022-10-30T02:18:00.988Z,3.67
2022-10-30T02:20:28.990Z,4.10
2022-10-30T02:22:59.100Z,3.97
2022-10-30T02:25:30.959Z,3.90
2022-10-30T02:27:59.345Z,3.53
2022-10-30T02:30:28.596Z,3.45
2022-10-30T02:32:56.037Z,3.70
2022-10-30T02:35:23.299Z,4.00
2022-10-30T02:37:52.188Z,3.70
2022-10-30T02:40:19.202Z,3.97
2022-10-30T02:42:53.123Z,3.35
2022-10-30T02:45:20.333Z,3.85
2022-10-30T02:47:48.257Z,4.47
2022-10-30T02:50:15.316Z,3.88
2022-10-30T02:52:42.400Z,3.85
2022-10-30T02:55:09.959Z,3.50
2022-10-30T02:57:38.281Z,5.03
2022-10-30T03:00:06.168Z,3.67
2022-10-30T03:02:33.266Z,3.90
2022-10-30T03:05:00.475Z,4.18
2022-10-30T03:07:27.694Z,4.03
2022-10-30T03:09:54.973Z,4.25
2022-10-30T03:12:22.788Z,4.68
2022-10-30T03:14:51.834Z,3.90
2022-10-30T03:17:18.811Z,3.80
2022-10-30T03:19:46.054Z,3.50
2022-10-30T03:22:13.313Z,3.80
2022-10-30T03:24:40.260Z,3.97
2022-10-30T03:27:07.263Z,3.25
2022-10-30T03:29:34.260Z,3.67
2022-10-30T03:32:03.009Z,3.45
2022-10-30T03:34:34.487Z,3.95
2022-10-30T03:37:05.366Z,3.40
2022-10-30T03:39:32.395Z,3.97
2022-10-30T03:41:59.362Z,3.58
2022-10-30T03:44:26.372Z,3.03
2022-10-30T03:46:53.867Z,3.75
2022-10-30T03:49:26.288Z,3.70
2022-10-30T03:51:54.527Z,3.53
2022-10-30T03:54:23.426Z,3.80
2022-10-30T03:56:50.377Z,3.50
2022-10-30T03:59:18.153Z,3.53
2022-10-30T04:01:59.671Z,3.58
2022-10-30T04:04:26.974Z,3.45
2022-10-30T04:06:54.032Z,3.33
2022-10-30T04:09:22.753Z,3.60
2022-10-30T04:11:49.852Z,4.50
2022-10-30T04:14:17.421Z,3.78
2022-10-30T04:16:44.574Z,3.30
2022-10-30T04:19:12.385Z,3.72
2022-10-30T04:21:39.921Z,3.45
2022-10-30T04:24:07.959Z,4.00
2022-10-30T04:26:35.967Z,3.30
2022-10-30T04:29:03.124Z,3.42
2022-10-30T04:31:30.067Z,3.67
2022-10-30T04:33:57.149Z,4.05
2022-10-30T04:36:30.380Z,3.10
2022-10-30T04:38:57.377Z,3.58
2022-10-30T04:41:26.736Z,3.35
2022-10-30T04:44:01.538Z,3.20
2022-10-30T04:46:32.725Z,3.10
2022-10-30T04:49:07.082Z,3.22
2022-10-30T04:51:34.086Z,3.58
2022-10-30T04:54:01.884Z,3.38
2022-10-30T04:56:32.942Z,3.72
2022-10-30T04:59:00.484Z,3.50
2022-10-30T05:01:27.560Z,3.47
2022-10-30T05:03:55.285Z,3.55
2022-10-30T05:06:26.653Z,3.25
2022-10-30T05:08:55.759Z,3.10
2022-10-30T05:11:38.217Z,2.97
2022-10-30T05:14:05.224Z,3.20
2022-10-30T05:16:32.191Z,3.28
2022-10-30T05:19:01.118Z,3.33
2022-10-30T05:21:29.150Z,3.90
2022-10-30T05:23:56.286Z,3.55
2022-10-30T05:26:23.886Z,3.17
2022-10-30T05:28:52.306Z,3.60
2022-10-30T05:31:19.674Z,3.40
2022-10-30T05:34:07.384Z,3.55
2022-10-30T05:36:36.032Z,3.55
2022-10-30T05:39:04.151Z,3.20
2022-10-30T05:41:35.527Z,3.20
2022-10-30T05:44:03.259Z,3.38
2022-10-30T05:46:30.701Z,4.15
2022-10-30T05:49:06.838Z,4.07
2022-10-30T05:51:38.119Z,3.58
2022-10-30T05:54:08.850Z,3.88
2022-10-30T05:56:39.915Z,3.55
2022-10-30T05:59:07.093Z,3.90
2022-10-30T06:01:34.181Z,3.78
2022-10-30T06:04:05.493Z,4.15
2022-10-30T06:06:33.259Z,3.33
2022-10-30T06:09:00.768Z,3.15
2022-10-30T06:11:50.714Z,3.88
2022-10-30T06:14:20.322Z,3.47
2022-10-30T06:16:50.721Z,3.42
2022-10-30T06:19:26.393Z,3.78
2022-10-30T06:21:58.873Z,3.30
2022-10-30T06:24:41.196Z,3.63
2022-10-30T06:27:41.347Z,3.20
2022-10-30T06:30:08.880Z,2.65
2022-10-30T06:32:36.007Z,3.28
2022-10-30T06:35:03.400Z,3.55
2022-10-30T06:37:30.540Z,3.47
2022-10-30T06:40:00.407Z,3.83
2022-10-30T06:42:51.482Z,3.38
2022-10-30T06:45:36.276Z,3.58
2022-10-30T06:48:03.423Z,3.53
2022-10-30T06:50:35.502Z,3.45
2022-10-30T06:53:02.450Z,3.88
2022-10-30T06:55:29.511Z,3.42
2022-10-30T06:58:15.235Z,2.92
2022-10-30T07:00:55.251Z,3.17
2022-10-30T07:03:40.738Z,3.30
2022-10-30T07:06:08.163Z,4.03
2022-10-30T07:08:35.280Z,3.80
2022-10-30T07:11:02.265Z,4.10
2022-10-30T07:13:47.668Z,3.83
2022-10-30T07:16:26.703Z,4.53
2022-10-30T07:18:53.750Z,4.80
2022-10-30T07:21:20.741Z,5.97
2022-10-30T07:23:48.374Z,5.55
2022-10-30T07:26:29.006Z,6.35
2022-10-30T07:28:59.540Z,7.05
2022-10-30T07:31:42.273Z,8.38
2022-10-30T07:34:51.294Z,7.20
2022-10-30T07:37:30.854Z,6.20
2022-10-30T07:40:13.526Z,5.45
2022-10-30T07:43:01.342Z,4.65
2022-10-30T07:45:57.664Z,5.28
2022-10-30T07:48:43.409Z,5.32
2022-10-30T07:51:36.942Z,5.40
2022-10-30T07:54:04.138Z,6.40
2022-10-30T07:56:32.853Z,6.43
2022-10-30T07:59:18.506Z,5.93
2022-10-30T08:02:06.002Z,6.82
2022-10-30T08:04:50.682Z,6.60
2022-10-30T08:07:35.401Z,5.90
2022-10-30T08:10:02.489Z,5.82
2022-10-30T08:12:29.751Z,5.93
2022-10-30T08:14:56.621Z,6.03
2022-10-30T08:17:23.618Z,6.28
2022-10-30T08:19:50.764Z,5.80
2022-10-30T08:22:18.344Z,5.57
2022-10-30T08:24:51.839Z,5.22
2022-10-30T08:27:19.171Z,6.05
2022-10-30T08:29:46.898Z,4.88
2022-10-30T08:32:13.883Z,5.13
2022-10-30T08:35:20.216Z,4.20
2022-10-30T08:37:47.514Z,4.43
2022-10-30T08:40:14.651Z,5.10
2022-10-30T08:42:56.001Z,4.88
2022-10-30T08:45:29.792Z,4.68
2022-10-30T08:48:06.300Z,5.35
2022-10-30T08:50:37.991Z,4.13
2022-10-30T08:53:08.308Z,4.00
2022-10-30T08:55:35.919Z,3.70
2022-10-30T08:58:05.956Z,4.28
2022-10-30T09:00:34.117Z,4.22
2022-10-30T09:03:13.131Z,3.83
2022-10-30T09:06:12.497Z,4.15
2022-10-30T09:09:15.465Z,3.90
2022-10-30T09:11:48.966Z,4.28
2022-10-30T09:14:16.108Z,3.28
2022-10-30T09:16:43.065Z,4.18
2022-10-30T09:19:14.742Z,3.88
2022-10-30T09:21:44.988Z,4.10
2022-10-30T09:24:11.971Z,3.20
2022-10-30T09:26:39.013Z,4.20
2022-10-30T09:29:12.311Z,4.32
2022-10-30T09:31:58.728Z,3.63
2022-10-30T09:34:31.087Z,3.30
2022-10-30T09:37:13.071Z,3.08
2022-10-30T09:39:40.077Z,3.60
2022-10-30T09:42:41.167Z,3.03
2022-10-30T09:45:45.325Z,3.22
2022-10-30T09:48:50.159Z,3.15
2022-10-30T09:52:03.934Z,3.03
2022-10-30T09:55:04.748Z,3.28
2022-10-30T09:57:57.747Z,5.68
2022-10-30T10:00:36.621Z,9.65
2022-10-30T10:04:02.793Z,3.95
2022-10-30T10:07:07.595Z,3.58
2022-10-30T10:09:45.749Z,8.77
2022-10-30T10:12:43.504Z,4.22
2022-10-30T10:15:47.040Z,3.53
2022-10-30T10:18:23.450Z,5.70
2022-10-30T10:20:55.713Z,4.53
2022-10-30T10:23:39.192Z,6.05
2022-10-30T10:26:29.607Z,6.38
2022-10-30T10:29:44.324Z,4.10
2022-10-30T10:32:52.231Z,6.00
2022-10-30T10:35:53.519Z,4.80
2022-10-30T10:38:53.795Z,8.57
2022-10-30T10:41:35.650Z,6.70
2022-10-30T10:44:38.413Z,4.13
2022-10-30T10:47:33.354Z,4.35
2022-10-30T10:50:26.127Z,4.43
2022-10-30T10:53:42.821Z,7.15
2022-10-30T10:56:10.897Z,3.25
2022-10-30T10:58:49.711Z,3.33
2022-10-30T11:01:37.383Z,4.28
2022-10-30T11:04:42.279Z,3.78
2022-10-30T11:07:34.262Z,5.75
2022-10-30T11:12:38.552Z,3.40
2022-10-30T11:15:38.084Z,2.97
2022-10-30T11:18:09.017Z,4.05
2022-10-30T11:20:50.075Z,3.30
2022-10-30T11:23:45.132Z,3.42
2022-10-30T11:26:18.287Z,6.35
2022-10-30T11:28:58.853Z,4.93
2022-10-30T11:31:34.706Z,3.97
2022-10-30T11:34:19.933Z,4.53
2022-10-30T11:36:52.291Z,3.50
2022-10-30T11:39:30.651Z,3.17
2022-10-30T11:42:11.799Z,3.20
2022-10-30T11:44:43.851Z,2.95
2022-10-30T11:47:14.588Z,3.90
2022-10-30T11:49:54.755Z,3.33
2022-10-30T11:52:24.054Z,2.78
2022-10-30T11:54:56.896Z,2.60
2022-10-30T11:57:36.377Z,4.45
2022-10-30T12:00:08.310Z,3.20
2022-10-30T12:02:44.773Z,3.50
2022-10-30T12:05:39.047Z,2.88
2022-10-30T12:08:09.181Z,3.22
2022-10-30T12:10:47.709Z,3.95
2022-10-30T12:13:20.678Z,4.05
2022-10-30T12:15:51.443Z,4.50
2022-10-30T12:21:00.864Z,2.28
2022-10-30T12:23:29.649Z,3.50
2022-10-30T12:26:08.338Z,2.47
2022-10-30T12:28:36.009Z,2.75
2022-10-30T12:31:15.244Z,3.67
2022-10-30T12:34:06.317Z,3.53
2022-10-30T12:36:46.050Z,3.80
2022-10-30T12:39:30.681Z,2.70
2022-10-30T12:42:11.709Z,2.90
2022-10-30T12:45:10.994Z,3.70
2022-10-30T12:48:11.064Z,2.97
2022-10-30T12:51:21.221Z,3.45
2022-10-30T12:54:02.094Z,3.42
2022-10-30T12:56:35.858Z,3.70
2022-10-30T12:59:33.585Z,3.95
2022-10-30T13:02:28.725Z,4.13
2022-10-30T13:05:04.379Z,4.65
2022-10-30T13:07:50.292Z,4.10
2022-10-30T13:10:26.127Z,3.17
2022-10-30T13:13:02.043Z,3.20
2022-10-30T13:15:36.541Z,3.30
2022-10-30T13:18:17.072Z,3.20
2022-10-30T13:21:13.077Z,2.97
2022-10-30T13:24:02.623Z,2.13
2022-10-30T13:26:42.969Z,2.38
2022-10-30T13:29:22.247Z,2.03
2022-10-30T13:32:07.156Z,2.42
2022-10-30T13:34:57.174Z,2.13
2022-10-30T13:37:52.469Z,2.20
2022-10-30T13:40:42.273Z,2.28
2022-10-30T13:44:01.864Z,2.00
2022-10-30T13:47:05.368Z,2.88
2022-10-30T13:50:12.793Z,1.58
2022-10-30T13:52:47.329Z,1.95
2022-10-30T13:55:26.165Z,1.95
2022-10-30T13:58:12.893Z,2.20
2022-10-30T14:01:18.205Z,2.58
2022-10-30T14:04:24.404Z,2.53
2022-10-30T14:07:23.619Z,2.60
2022-10-30T14:10:09.212Z,2.50
2022-10-30T14:12:57.708Z,1.88
2022-10-30T14:15:30.932Z,2.45
2022-10-30T14:18:13.439Z,2.67
2022-10-30T14:20:49.620Z,2.30
2022-10-30T14:23:27.850Z,1.80
2022-10-30T14:26:19.836Z,2.20
2022-10-30T14:28:48.985Z,2.63
2022-10-30T14:31:33.746Z,2.13
2022-10-30T14:34:01.034Z,2.50
2022-10-30T14:36:34.339Z,2.58
2022-10-30T14:39:10.523Z,2.67
2022-10-30T14:42:08.941Z,3.05
2022-10-30T14:45:14.585Z,2.75
2022-10-30T14:48:27.679Z,2.70
2022-10-30T14:51:19.910Z,2.97
2022-10-30T14:54:17.130Z,3.63
2022-10-30T14:56:52.654Z,3.00
2022-10-30T14:59:19.541Z,2.58
2022-10-30T15:02:13.117Z,2.63
2022-10-30T15:05:33.972Z,3.83
2022-10-30T15:08:34.095Z,2.80
2022-10-30T15:11:33.333Z,3.63
2022-10-30T15:14:21.114Z,3.00
2022-10-30T15:16:51.344Z,3.00
2022-10-30T15:19:19.638Z,3.53
2022-10-30T15:21:51.916Z,3.25
2022-10-30T15:24:29.640Z,3.58
2022-10-30T15:27:00.910Z,3.30
2022-10-30T15:29:33.238Z,3.72
2022-10-30T15:32:25.484Z,3.08
2022-10-30T15:35:01.804Z,3.65
2022-10-30T15:37:29.155Z,4.10
2022-10-30T15:40:18.010Z,3.78
2022-10-30T15:42:47.321Z,2.95
2022-10-30T15:45:21.243Z,3.35
2022-10-30T15:47:57.746Z,2.28
2022-10-30T15:50:25.090Z,2.35
2022-10-30T15:52:53.933Z,2.25
2022-10-30T15:55:29.812Z,2.38
2022-10-30T15:58:04.993Z,2.13
2022-10-30T16:00:37.004Z,2.58
2022-10-30T16:05:40.030Z,3.65
2022-10-30T16:08:21.655Z,2.65
2022-10-30T16:10:54.419Z,2.60
2022-10-30T16:13:30.254Z,2.75
2022-10-30T16:15:57.618Z,2.67
2022-10-30T16:18:32.276Z,3.08
2022-10-30T16:21:07.417Z,3.03
2022-10-30T16:23:40.956Z,3.63
2022-10-30T16:26:32.810Z,3.42
2022-10-30T16:29:18.376Z,3.40
2022-10-30T16:31:49.875Z,2.63
2022-10-30T16:34:35.895Z,2.50
2022-10-30T16:37:05.434Z,2.58
2022-10-30T16:39:34.167Z,3.17
2022-10-30T16:42:01.865Z,2.25
2022-10-30T16:44:35.800Z,2.83
2022-10-30T16:47:25.135Z,3.80
2022-10-30T16:49:58.043Z,2.83
2022-10-30T16:52:31.174Z,3.13
2022-10-30T16:55:06.828Z,2.47
2022-10-30T16:57:41.759Z,2.92
2022-10-30T17:00:26.039Z,3.13
2022-10-30T17:02:57.938Z,3.00
2022-10-30T17:05:33.702Z,3.13
2022-10-30T17:08:09.251Z,2.10
2022-10-30T17:11:07.399Z,2.42
2022-10-30T17:13:42.781Z,2.53
2022-10-30T17:16:25.242Z,3.25
2022-10-30T17:19:01.743Z,3.35
2022-10-30T17:21:40.933Z,3.63
2022-10-30T17:24:34.861Z,3.00
2022-10-30T17:27:06.100Z,3.47
2022-10-30T17:29:41.811Z,3.78
2022-10-30T17:32:42.529Z,3.60
2022-10-30T17:35:19.395Z,4.32
2022-10-30T17:37:46.730Z,3.30
2022-10-30T17:40:14.287Z,3.95
2022-10-30T17:42:41.975Z,3.30
2022-10-30T17:45:14.485Z,3.85
2022-10-30T17:47:42.047Z,3.88
2022-10-30T17:50:09.612Z,4.38
2022-10-30T17:52:36.663Z,3.42
2022-10-30T17:55:24.503Z,4.22
2022-10-30T17:57:52.181Z,4.88
2022-10-30T18:00:19.784Z,4.25
2022-10-30T18:02:47.193Z,4.85
2022-10-30T18:05:18.194Z,4.47
2022-10-30T18:07:45.477Z,3.80
2022-10-30T18:10:13.240Z,4.10
2022-10-30T18:12:41.350Z,3.88
2022-10-30T18:15:19.925Z,3.55
2022-10-30T18:17:47.099Z,4.57
2022-10-30T18:20:14.176Z,3.80
2022-10-30T18:22:41.191Z,4.43
2022-10-30T18:25:25.747Z,5.05
2022-10-30T18:27:53.371Z,3.92
2022-10-30T18:30:21.610Z,3.88
2022-10-30T18:32:49.095Z,3.25
2022-10-30T18:35:28.692Z,2.90
2022-10-30T18:37:55.727Z,3.38
2022-10-30T18:40:22.949Z,3.42
2022-10-30T18:42:58.577Z,3.50
2022-10-30T18:45:33.808Z,3.63
2022-10-30T18:48:01.967Z,3.78
2022-10-30T18:50:30.627Z,3.50
2022-10-30T18:52:59.784Z,3.50
2022-10-30T18:55:37.308Z,3.33
2022-10-30T18:58:05.631Z,3.90
2022-10-30T19:00:51.166Z,4.20
2022-10-30T19:03:20.600Z,3.80
2022-10-30T19:05:50.865Z,4.05
2022-10-30T19:08:17.901Z,4.68
2022-10-30T19:10:49.864Z,4.63
2022-10-30T19:13:22.349Z,3.90
2022-10-30T19:15:57.414Z,4.72
2022-10-30T19:18:28.580Z,4.00
2022-10-30T19:21:04.308Z,3.90
2022-10-30T19:23:32.958Z,4.57
2022-10-30T19:25:59.992Z,4.95
2022-10-30T19:28:27.081Z,4.95
2022-10-30T19:30:54.840Z,6.32
2022-10-30T19:33:23.805Z,5.38
2022-10-30T19:36:04.575Z,5.80
2022-10-30T19:38:32.559Z,6.50
2022-10-30T19:41:00.337Z,5.43
2022-10-30T19:43:27.463Z,4.80
2022-10-30T19:45:59.147Z,6.60
2022-10-30T19:48:56.728Z,6.70
2022-10-30T19:51:13.555Z,5.18
2022-10-30T19:53:41.103Z,5.80
2022-10-30T19:56:11.581Z,6.10
2022-10-30T19:58:38.634Z,6.22
2022-10-30T20:01:05.852Z,7.28
2022-10-30T20:03:32.859Z,6.95
2022-10-30T20:05:59.841Z,6.35
2022-10-30T20:08:26.925Z,5.45
2022-10-30T20:10:57.656Z,5.85
2022-10-30T20:13:27.071Z,6.43
2022-10-30T20:15:56.729Z,5.85
2022-10-30T20:18:30.285Z,6.20
2022-10-30T20:21:01.649Z,6.10
2022-10-30T20:23:29.151Z,4.78
2022-10-30T20:26:03.393Z,4.60
2022-10-30T20:28:38.214Z,5.38
2022-10-30T20:31:06.618Z,5.35
2022-10-30T20:33:34.218Z,5.43
2022-10-30T20:36:01.170Z,5.70
2022-10-30T20:38:32.721Z,5.43
2022-10-30T20:41:02.131Z,4.78
2022-10-30T20:43:38.113Z,6.05
2022-10-30T20:46:09.273Z,5.60
2022-10-30T20:48:37.872Z,5.28
2022-10-30T20:51:06.676Z,4.80
2022-10-30T20:53:34.081Z,5.78
2022-10-30T20:56:01.271Z,5.13
2022-10-30T20:58:28.563Z,5.65
2022-10-30T21:00:58.448Z,5.55
2022-10-30T21:03:26.754Z,5.30
2022-10-30T21:06:00.123Z,5.15
2022-10-30T21:08:29.531Z,6.22
2022-10-30T21:11:01.615Z,5.20
2022-10-30T21:13:28.996Z,4.90
2022-10-30T21:16:02.267Z,4.95
2022-10-30T21:18:29.540Z,5.35
2022-10-30T21:21:08.483Z,4.50
2022-10-30T21:23:35.592Z,5.07
2022-10-30T21:26:06.264Z,4.38
2022-10-30T21:28:33.468Z,5.10
2022-10-30T21:31:05.841Z,5.03
2022-10-30T21:33:34.940Z,5.57
2022-10-30T21:36:18.157Z,6.32
2022-10-30T21:38:45.216Z,5.22
2022-10-30T21:41:16.460Z,4.68
2022-10-30T21:43:48.797Z,5.30
2022-10-30T21:46:15.704Z,4.93
2022-10-30T21:48:42.617Z,4.97
2022-10-30T21:51:16.549Z,4.75
2022-10-30T21:53:44.532Z,5.35
2022-10-30T21:56:18.580Z,5.82
2022-10-30T21:58:46.759Z,4.38
2022-10-30T22:01:18.349Z,4.60
2022-10-30T22:03:46.654Z,5.22
2022-10-30T22:06:16.721Z,4.43
2022-10-30T22:08:49.536Z,4.72
2022-10-30T22:11:17.611Z,6.18
2022-10-30T22:13:45.332Z,4.47
2022-10-30T22:16:14.615Z,5.65
2022-10-30T22:18:41.520Z,4.72
2022-10-30T22:21:12.398Z,4.90
2022-10-30T22:23:40.660Z,4.57
2022-10-30T22:26:13.389Z,5.13
2022-10-30T22:28:41.278Z,5.10
2022-10-30T22:31:15.430Z,4.70
2022-10-30T22:33:43.359Z,4.95
2022-10-30T22:36:25.183Z,4.75
2022-10-30T22:39:00.314Z,5.63
2022-10-30T22:41:32.860Z,5.43
2022-10-30T22:44:09.806Z,5.07
2022-10-30T22:49:04.906Z,4.93
2022-10-30T22:51:34.920Z,5.00
2022-10-30T22:54:05.206Z,5.40
2022-10-30T22:56:34.524Z,4.28
2022-10-30T22:59:08.189Z,3.63
2022-10-30T23:01:38.233Z,4.22
2022-10-30T23:04:08.020Z,4.53
2022-10-30T23:06:36.036Z,4.22
2022-10-30T23:09:08.484Z,4.13
2022-10-30T23:11:35.781Z,4.35
2022-10-30T23:14:02.707Z,3.95
2022-10-30T23:16:29.742Z,4.50
2022-10-30T23:18:59.243Z,4.72
2022-10-30T23:21:30.040Z,4.03
2022-10-30T23:23:57.966Z,3.40
2022-10-30T23:26:35.631Z,3.95
2022-10-30T23:29:03.230Z,3.83
2022-10-30T23:31:40.385Z,3.95
2022-10-30T23:34:11.426Z,4.15
2022-10-30T23:36:39.034Z,4.38
2022-10-30T23:39:10.152Z,4.10
2022-10-30T23:41:37.061Z,3.00
2022-10-30T23:44:07.602Z,3.83
2022-10-30T23:46:36.068Z,2.60
2022-10-30T23:49:04.488Z,2.83
2022-10-30T23:51:31.748Z,3.10
2022-10-30T23:53:58.894Z,3.88
2022-10-30T23:56:26.117Z,3.22
2022-10-30T23:58:53.400Z,4.05
